Time;durP1;ratioP1;P1;durP2;ratioP2;P2;SDS_P1;SDS_P2;PMS_P1;PMS_P2;Temp;Humidity;BMP_temperature;BMP_pressure;BME280_temperature;BME280_humidity;BME280_pressure;Samples;Min_cycle;Max_cycle;Signal;HPM_P1;HPM_P2
2022/01/20 00:00:17;;;;;;;23.63;3.35;;;;;;;4.58;82.25;102430.25;4993448;28;20487;-61
2022/01/20 00:02:45;;;;;;;29.00;3.90;;;;;;;4.56;83.05;102424.03;4976141;28;20037;-59
2022/01/20 00:08:03;;;;;;;20.83;3.30;;;;;;;4.55;83.41;102430.09;4994072;28;20039;-60
2022/01/20 00:27:02;;;;;;;19.08;3.83;;;;;;;4.36;83.83;102433.28;4993484;28;20045;-60
2022/01/20 00:29:30;;;;;;;25.55;4.40;;;;;;;4.36;83.94;102433.28;4993651;28;20061;-60
2022/01/20 00:32:09;;;;;;;21.08;3.72;;;;;;;4.38;83.68;102454.31;4993660;28;20034;-61
2022/01/20 00:37:21;;;;;;;17.88;3.80;;;;;;;4.40;83.97;102450.97;4993636;28;20064;-61
2022/01/20 00:39:48;;;;;;;21.20;3.78;;;;;;;4.39;84.87;102446.56;4993497;28;20035;-61
2022/01/20 00:42:15;;;;;;;19.35;3.55;;;;;;;4.40;84.25;102440.50;4993642;28;20037;-61
2022/01/20 00:44:41;;;;;;;21.52;3.92;;;;;;;4.39;85.18;102445.66;4993359;28;20085;-61
2022/01/20 00:47:06;;;;;;;18.75;3.38;;;;;;;4.39;85.09;102440.44;4993463;28;20026;-61
2022/01/20 00:49:33;;;;;;;21.88;3.33;;;;;;;4.43;85.44;102438.09;4993395;28;20101;-61
2022/01/20 00:51:59;;;;;;;24.77;3.47;;;;;;;4.47;85.08;102434.84;4993371;28;20034;-61
2022/01/20 00:54:25;;;;;;;19.17;3.03;;;;;;;4.50;84.72;102434.16;4993427;28;20022;-61
2022/01/20 00:56:50;;;;;;;18.35;3.50;;;;;;;4.52;84.80;102432.50;4993101;28;20370;-61
2022/01/20 00:59:16;;;;;;;19.48;3.58;;;;;;;4.55;84.86;102429.19;4993283;28;20026;-61
2022/01/20 01:01:42;;;;;;;17.52;3.88;;;;;;;4.54;85.18;102446.59;4993364;28;20042;-61
2022/01/20 01:04:07;;;;;;;22.58;3.63;;;;;;;4.57;84.83;102462.47;4993300;28;20105;-61
2022/01/20 01:09:30;;;;;;;21.73;4.05;;;;;;;4.55;85.07;102448.41;4933309;29;20040;-61
2022/01/20 01:12:01;;;;;;;19.25;3.00;;;;;;;4.53;85.09;102460.47;4933397;29;20039;-61
2022/01/20 01:14:29;;;;;;;14.57;3.13;;;;;;;4.51;84.93;102454.25;4933424;29;20031;-61
2022/01/20 01:22:21;;;;;;;22.65;3.55;;;;;;;4.46;85.14;102468.78;4933313;29;20042;-61
2022/01/20 01:24:53;;;;;;;15.38;2.90;;;;;;;4.44;85.18;102465.16;4933415;29;20476;-61
2022/01/20 01:27:20;;;;;;;;;;;;;;;4.49;85.09;102458.47;4934398;29;20039;-61
2022/01/20 01:30:08;;;;;;;18.92;3.28;;;;;;;4.48;85.28;102461.91;4936461;29;19910;-61
2022/01/20 01:35:06;;;;;;;22.02;2.88;;;;;;;4.47;84.44;102463.63;4936706;29;20476;-61
2022/01/20 01:40:07;;;;;;;17.63;2.92;;;;;;;4.46;84.54;102456.59;4936499;29;20506;-60
2022/01/20 01:42:40;;;;;;;15.52;3.05;;;;;;;4.51;84.63;102467.34;4936297;29;20111;-61
2022/01/20 01:45:14;;;;;;;12.77;2.80;;;;;;;4.55;84.74;102465.84;4966773;28;20046;-61
2022/01/20 01:47:40;;;;;;;17.05;3.03;;;;;;;4.54;83.92;102467.56;4996353;28;20105;-61
2022/01/20 01:50:07;;;;;;;17.25;2.85;;;;;;;4.54;84.33;102467.56;4996456;28;20057;-61
2022/01/20 01:52:32;;;;;;;19.10;3.25;;;;;;;4.51;84.60;102464.72;4996170;28;20030;-61
2022/01/20 01:54:58;;;;;;;17.38;3.03;;;;;;;4.48;84.28;102465.44;4995935;28;20122;-60
2022/01/20 01:57:25;;;;;;;17.55;3.88;;;;;;;4.46;83.89;102466.16;4995668;28;20082;-61
2022/01/20 01:59:51;;;;;;;18.98;3.38;;;;;;;4.45;83.65;102469.56;4996088;28;20034;-61
2022/01/20 02:02:16;;;;;;;15.25;2.83;;;;;;;4.41;84.68;102471.13;4996241;28;20022;-61
2022/01/20 02:04:42;;;;;;;22.77;3.20;;;;;;;4.37;83.83;102466.50;4996033;28;20046;-61
2022/01/20 02:20:23;;;;;;;18.52;3.17;;;;;;;4.25;85.21;102470.97;4995572;28;20890;-61
2022/01/20 02:22:49;;;;;;;15.55;2.90;;;;;;;4.29;85.45;102475.59;4995639;28;20027;-61
2022/01/20 02:25:24;;;;;;;17.90;2.50;;;;;;;4.31;85.42;102486.16;4995564;28;20049;-61
2022/01/20 02:27:50;;;;;;;17.23;2.65;;;;;;;4.33;85.55;102488.06;4995454;28;20026;-60
2022/01/20 02:30:20;;;;;;;16.75;2.47;;;;;;;4.34;85.21;102483.72;4995431;28;20058;-61
2022/01/20 02:32:54;;;;;;;12.15;2.63;;;;;;;4.36;85.99;102475.16;4995107;28;20100;-61
2022/01/20 02:35:35;;;;;;;14.95;2.78;;;;;;;4.41;86.12;102478.03;4995645;28;20026;-61
2022/01/20 02:38:28;;;;;;;9.48;2.38;;;;;;;4.44;85.45;102463.44;4977478;28;20034;-61
2022/01/20 02:46:14;;;;;;;11.02;2.08;;;;;;;4.52;85.21;102448.22;4995214;28;20091;-62
2022/01/20 02:48:40;;;;;;;6.95;1.92;;;;;;;4.54;85.52;102454.47;4977957;28;20464;-61
2022/01/20 02:51:06;;;;;;;12.57;2.30;;;;;;;4.53;84.54;102457.88;4995319;28;20101;-61
2022/01/20 02:53:31;;;;;;;7.10;2.05;;;;;;;4.57;85.56;102448.50;4995330;28;20073;-59
2022/01/20 02:55:57;;;;;;;11.02;2.15;;;;;;;4.61;85.30;102461.84;4994816;28;20026;-59
2022/01/20 02:58:22;;;;;;;11.07;2.13;;;;;;;4.63;85.55;102454.13;4994733;28;20117;-59
2022/01/20 03:00:48;;;;;;;11.07;2.40;;;;;;;4.63;85.27;102460.25;4977706;28;20034;-59
2022/01/20 03:03:14;;;;;;;11.07;2.47;;;;;;;4.64;85.00;102461.16;4994801;28;20053;-58
2022/01/20 03:05:39;;;;;;;6.88;1.73;;;;;;;4.63;84.54;102439.31;4994877;28;20022;-59
2022/01/20 03:08:05;;;;;;;14.65;2.47;;;;;;;4.62;84.54;102440.09;4994795;28;20026;-61
2022/01/20 03:10:30;;;;;;;12.27;2.25;;;;;;;4.63;85.39;102441.03;4994743;28;20029;-62
2022/01/20 03:12:57;;;;;;;11.88;2.50;;;;;;;4.63;85.08;102443.66;4994780;28;20026;-61
2022/01/20 03:15:23;;;;;;;9.45;2.45;;;;;;;4.63;84.74;102455.00;4994800;28;20109;-62
2022/01/20 03:17:49;;;;;;;10.75;2.30;;;;;;;4.60;84.55;102452.19;4994702;28;20030;-61
2022/01/20 03:20:14;;;;;;;14.35;2.30;;;;;;;4.62;85.01;102447.03;4994625;28;20494;-62
2022/01/20 03:22:40;;;;;;;12.38;2.30;;;;;;;4.62;84.92;102439.19;4994642;28;20023;-61
2022/01/20 03:25:06;;;;;;;8.98;2.28;;;;;;;4.57;85.24;102425.81;4994352;28;20019;-61
2022/01/20 03:27:31;;;;;;;7.75;2.22;;;;;;;4.53;84.66;102423.84;4994199;28;20066;-62
2022/01/20 03:29:56;;;;;;;11.98;2.15;;;;;;;4.47;85.52;102428.72;4994380;28;20495;-61
2022/01/20 03:32:22;;;;;;;15.60;2.53;;;;;;;4.44;85.18;102428.50;4994398;28;20072;-59
2022/01/20 03:34:47;;;;;;;9.40;2.13;;;;;;;4.40;85.41;102432.66;4994171;28;20026;-59
2022/01/20 03:37:13;;;;;;;12.82;2.50;;;;;;;4.39;85.35;102427.34;4994322;28;20100;-59
2022/01/20 03:39:38;;;;;;;12.90;2.42;;;;;;;4.40;85.94;102445.75;4994143;28;20014;-59
2022/01/20 03:42:04;;;;;;;9.70;2.63;;;;;;;4.38;86.08;102439.53;4993998;28;20038;-59
2022/01/20 03:44:30;;;;;;;8.73;2.20;;;;;;;4.39;85.36;102437.81;4994326;28;20019;-59
2022/01/20 03:46:57;;;;;;;13.63;2.55;;;;;;;4.37;85.53;102429.88;4994136;28;20026;-59
2022/01/20 03:49:53;;;;;;;10.95;2.47;;;;;;;4.40;86.02;102434.38;4994061;28;20030;-61
2022/01/20 03:52:10;;;;;;;15.00;2.28;;;;;;;4.40;84.78;102437.00;4992751;28;20034;-61
2022/01/20 03:54:36;;;;;;;12.05;2.50;;;;;;;4.39;85.57;102428.25;4993948;28;20030;-62
2022/01/20 03:57:01;;;;;;;13.90;2.35;;;;;;;4.38;85.61;102434.28;4993553;28;20054;-62
2022/01/20 03:59:27;;;;;;;9.68;2.10;;;;;;;4.37;84.41;102442.03;4994158;28;20033;-61
2022/01/20 04:01:52;;;;;;;14.25;2.45;;;;;;;4.34;84.39;102432.28;4993965;28;20053;-62
2022/01/20 04:04:18;;;;;;;17.63;2.88;;;;;;;4.32;84.76;102436.50;4993793;28;20023;-59
2022/01/20 04:06:43;;;;;;;11.00;2.55;;;;;;;4.34;84.99;102439.25;4993878;28;20113;-59
2022/01/20 04:09:09;;;;;;;9.82;2.40;;;;;;;4.32;84.48;102440.84;4993780;28;20037;-59
2022/01/20 04:11:34;;;;;;;14.75;2.40;;;;;;;4.33;84.89;102454.03;4993731;28;20034;-59
2022/01/20 04:14:02;;;;;;;11.32;2.17;;;;;;;4.30;84.06;102453.84;4993980;28;20492;-59
2022/01/20 04:16:37;;;;;;;17.48;2.45;;;;;;;4.34;84.04;102454.94;4993700;28;20030;-59
2022/01/20 04:19:08;;;;;;;12.63;2.13;;;;;;;4.39;84.53;102456.13;4993641;28;20042;-59
2022/01/20 04:21:36;;;;;;;16.15;2.85;;;;;;;4.40;84.58;102452.69;4993757;28;20034;-59
2022/01/20 04:24:03;;;;;;;13.18;2.85;;;;;;;4.42;84.30;102456.31;4993447;28;20022;-59
2022/01/20 04:26:28;;;;;;;13.45;2.40;;;;;;;4.47;85.10;102460.13;4993530;28;20053;-59
2022/01/20 04:28:56;;;;;;;18.27;3.13;;;;;;;4.48;84.71;102485.47;4993718;28;20476;-59
2022/01/20 04:31:24;;;;;;;20.35;3.05;;;;;;;4.47;85.06;102479.34;4993640;28;20034;-59
2022/01/20 04:33:49;;;;;;;14.88;2.88;;;;;;;4.43;85.18;102484.28;4993485;28;20515;-59
2022/01/20 04:36:15;;;;;;;12.38;2.65;;;;;;;4.38;85.10;102481.41;4993588;28;20054;-59
2022/01/20 04:38:41;;;;;;;13.50;2.55;;;;;;;4.31;85.20;102480.91;4976042;28;20077;-59
2022/01/20 04:41:07;;;;;;;14.98;2.50;;;;;;;4.23;85.62;102473.47;4993935;28;20105;-59
2022/01/20 04:43:32;;;;;;;12.55;2.40;;;;;;;4.19;85.19;102471.47;4993411;28;20018;-59
2022/01/20 04:46:14;;;;;;;13.07;2.63;;;;;;;4.17;85.27;102474.81;4993403;28;20064;-59
2022/01/20 04:59:17;;;;;;;16.35;2.45;;;;;;;4.16;85.80;102475.66;4993369;28;20085;-59
2022/01/20 05:01:45;;;;;;;12.05;2.97;;;;;;;4.14;85.51;102490.31;4993767;28;20030;-58
2022/01/20 05:04:13;;;;;;;10.70;2.28;;;;;;;4.14;86.07;102499.06;4996993;28;20037;-58
2022/01/20 05:06:41;;;;;;;8.82;2.28;;;;;;;4.12;85.95;102515.50;4997243;28;20030;-59
2022/01/20 05:09:07;;;;;;;12.43;2.63;;;;;;;4.13;85.83;102515.56;4996931;28;20077;-59
2022/01/20 05:11:35;;;;;;;15.68;2.35;;;;;;;4.15;85.85;102513.03;4996982;28;20035;-59
2022/01/20 05:14:01;;;;;;;9.88;2.28;;;;;;;4.16;85.80;102513.16;4997002;28;20033;-59
2022/01/20 05:16:26;;;;;;;13.10;2.28;;;;;;;4.19;85.30;102510.72;4996830;28;20027;-59
2022/01/20 05:18:52;;;;;;;10.95;2.20;;;;;;;4.24;85.02;102519.78;4996854;28;20391;-58
2022/01/20 05:21:17;;;;;;;14.80;2.42;;;;;;;4.25;85.21;102529.44;4996804;28;20030;-58
2022/01/20 05:23:43;;;;;;;10.73;2.58;;;;;;;4.26;85.56;102531.25;4996934;28;20030;-61
2022/01/20 05:26:09;;;;;;;12.30;2.47;;;;;;;4.29;85.63;102534.88;4996557;28;20494;-61
2022/01/20 05:28:35;;;;;;;12.65;2.83;;;;;;;4.30;85.19;102527.13;4996601;28;20034;-61
2022/01/20 05:31:00;;;;;;;12.15;2.08;;;;;;;4.37;86.11;102538.84;4996687;28;20404;-61
2022/01/20 05:33:27;;;;;;;12.45;2.33;;;;;;;4.42;85.90;102532.22;4996482;28;20499;-61
2022/01/20 05:35:52;;;;;;;15.80;2.35;;;;;;;4.43;85.20;102534.03;4996713;28;20018;-61
2022/01/20 05:38:18;;;;;;;12.20;2.63;;;;;;;4.43;85.38;102541.88;4996612;28;20038;-61
2022/01/20 05:40:45;;;;;;;10.02;2.30;;;;;;;4.46;85.52;102555.16;4996435;28;20173;-61
2022/01/20 05:43:13;;;;;;;9.32;2.50;;;;;;;4.42;85.74;102551.44;4996387;28;20494;-61
2022/01/20 05:45:39;;;;;;;13.75;2.80;;;;;;;4.37;86.65;102558.09;4996252;28;20543;-61
2022/01/20 05:48:12;;;;;;;13.45;3.00;;;;;;;4.32;86.44;102564.72;4996101;28;20157;-61
2022/01/20 05:50:38;;;;;;;11.73;2.35;;;;;;;4.31;86.79;102569.88;4996259;28;20442;-61
2022/01/20 05:53:05;;;;;;;14.48;2.70;;;;;;;4.32;87.06;102574.31;4996367;28;20061;-61
2022/01/20 05:55:31;;;;;;;17.10;2.60;;;;;;;4.32;87.53;102582.16;4996294;28;20025;-63
2022/01/20 05:57:57;;;;;;;13.15;2.80;;;;;;;4.27;87.34;102598.47;4995674;28;20039;-59
2022/01/20 06:00:24;;;;;;;11.88;2.80;;;;;;;4.22;87.58;102598.97;4996091;28;20036;-59
2022/01/20 06:05:35;;;;;;;14.68;2.47;;;;;;;4.12;85.15;102580.91;4995801;28;20045;-59
2022/01/20 06:08:01;;;;;;;14.60;3.08;;;;;;;4.10;84.98;102593.84;4995968;28;20026;-62
2022/01/20 06:10:26;;;;;;;18.38;3.00;;;;;;;4.11;85.17;102582.59;4996056;28;20395;-61
2022/01/20 06:12:52;;;;;;;13.05;2.50;;;;;;;4.11;84.60;102605.22;4995557;28;20043;-61
2022/01/20 06:15:17;;;;;;;10.25;2.20;;;;;;;4.13;85.06;102596.69;4995752;28;20037;-61
2022/01/20 06:17:43;;;;;;;11.50;2.40;;;;;;;4.17;85.52;102601.31;4995610;28;20085;-61
2022/01/20 06:20:09;;;;;;;18.67;3.00;;;;;;;4.21;85.08;102605.03;4995625;28;20065;-62
2022/01/20 06:22:37;;;;;;;10.75;2.40;;;;;;;4.22;85.60;102612.06;4995667;28;20026;-61
2022/01/20 06:25:04;;;;;;;12.80;2.80;;;;;;;4.22;85.08;102628.66;4995573;28;20029;-61
2022/01/20 06:27:29;;;;;;;15.27;2.90;;;;;;;4.20;84.49;102617.22;4995510;28;20491;-61
2022/01/20 06:29:56;;;;;;;15.55;2.60;;;;;;;4.23;85.24;102629.56;4995522;28;20054;-61
2022/01/20 06:32:21;;;;;;;11.43;2.67;;;;;;;4.22;84.87;102623.44;4995233;28;20026;-61
2022/01/20 06:34:47;;;;;;;11.85;2.47;;;;;;;4.24;84.52;102627.06;4995063;28;20494;-61
2022/01/20 06:37:13;;;;;;;14.32;2.60;;;;;;;4.25;83.17;102623.63;4995578;28;20546;-61
2022/01/20 06:39:39;;;;;;;15.30;3.03;;;;;;;4.25;82.52;102631.50;4995336;28;20073;-61
2022/01/20 06:42:05;;;;;;;15.27;2.97;;;;;;;4.21;81.66;102637.31;4995232;28;20050;-61
2022/01/20 06:44:30;;;;;;;11.20;2.65;;;;;;;4.22;82.46;102635.63;4995145;28;20034;-61
2022/01/20 06:46:55;;;;;;;22.52;4.88;;;;;;;4.22;81.86;102638.22;4994942;28;20026;-61
2022/01/20 06:49:21;;;;;;;22.85;3.88;;;;;;;4.21;80.72;102644.28;4995044;28;20026;-61
2022/01/20 06:51:47;;;;;;;15.27;3.20;;;;;;;4.24;81.43;102654.94;4995087;28;20027;-61
2022/01/20 06:54:13;;;;;;;21.55;3.03;;;;;;;4.22;79.91;102654.81;4995052;28;20026;-61
2022/01/20 06:56:41;;;;;;;14.90;2.92;;;;;;;4.25;80.37;102652.41;4994684;28;20093;-60
2022/01/20 06:59:11;;;;;;;14.43;3.28;;;;;;;4.21;78.79;102671.34;4995219;28;20125;-62
2022/01/20 07:01:37;;;;;;;18.83;3.38;;;;;;;4.21;79.75;102676.56;4994694;28;20081;-61
2022/01/20 07:04:04;;;;;;;20.85;4.25;;;;;;;4.19;78.58;102680.78;4994842;28;20027;-61
2022/01/20 07:06:30;;;;;;;18.77;3.80;;;;;;;4.18;77.89;102685.94;4994762;28;20089;-59
2022/01/20 07:08:56;;;;;;;21.42;3.67;;;;;;;4.20;78.98;102689.56;4994639;28;20030;-58
2022/01/20 07:11:22;;;;;;;24.50;3.70;;;;;;;4.19;77.50;102687.72;4994717;28;20015;-60
2022/01/20 07:13:47;;;;;;;14.45;2.72;;;;;;;4.24;78.43;102691.59;4994594;28;20106;-61
2022/01/20 07:16:13;;;;;;;20.67;3.63;;;;;;;4.23;75.88;102688.03;4994616;28;20611;-61
2022/01/20 07:18:39;;;;;;;21.02;3.67;;;;;;;4.22;76.75;102683.59;4994773;28;20029;-61
2022/01/20 07:21:04;;;;;;;18.85;3.30;;;;;;;4.20;74.73;102686.94;4994481;28;20030;-59
2022/01/20 07:23:29;;;;;;;22.98;3.28;;;;;;;4.18;73.63;102689.44;4994640;28;20061;-61
2022/01/20 07:25:55;;;;;;;13.32;3.10;;;;;;;4.15;73.84;102697.06;4993727;28;20173;-61
2022/01/20 07:28:20;;;;;;;12.48;3.40;;;;;;;4.13;72.98;102697.81;4994315;28;20037;-61
2022/01/20 07:30:46;;;;;;;21.65;3.42;;;;;;;4.13;73.49;102697.81;4994333;28;20161;-59
2022/01/20 07:33:12;;;;;;;19.35;3.30;;;;;;;4.14;73.98;102697.91;4994075;28;20021;-59
2022/01/20 07:35:38;;;;;;;21.35;3.35;;;;;;;4.16;73.63;102705.88;4994528;28;20168;-58
2022/01/20 07:38:04;;;;;;;14.05;2.95;;;;;;;4.19;74.00;102711.28;4994452;28;20487;-58
2022/01/20 07:40:31;;;;;;;14.75;3.28;;;;;;;4.23;74.58;102716.81;4994485;28;20018;-59
2022/01/20 07:42:56;;;;;;;16.35;2.70;;;;;;;4.26;73.44;102726.59;4994130;28;20046;-58
2022/01/20 07:45:22;;;;;;;22.42;4.38;;;;;;;4.25;73.25;102725.69;4993939;28;20027;-59
2022/01/20 07:47:48;;;;;;;13.60;2.90;;;;;;;4.27;73.63;102725.78;4993903;28;20423;-59
2022/01/20 07:50:13;;;;;;;20.35;2.70;;;;;;;4.28;74.29;102724.97;4994000;28;20113;-62
2022/01/20 07:52:39;;;;;;;20.38;3.00;;;;;;;4.26;72.39;102726.59;4994016;28;20026;-59
2022/01/20 07:55:05;;;;;;;14.80;2.88;;;;;;;4.28;72.99;102730.19;4994109;28;20048;-59
2022/01/20 07:57:30;;;;;;;17.88;2.70;;;;;;;4.27;72.46;102736.25;4993501;28;20118;-59
2022/01/20 07:59:56;;;;;;;16.95;3.30;;;;;;;4.24;72.17;102736.97;4993896;28;20030;-59
2022/01/20 08:02:21;;;;;;;23.42;3.13;;;;;;;4.25;71.64;102730.91;4993796;28;20018;-60
2022/01/20 08:04:47;;;;;;;16.23;2.80;;;;;;;4.26;73.00;102734.44;4993629;28;20121;-59
2022/01/20 08:07:12;;;;;;;12.68;2.80;;;;;;;4.29;71.11;102749.44;4993895;28;20022;-59
2022/01/20 08:09:38;;;;;;;13.80;2.90;;;;;;;4.24;71.62;102746.53;4994008;28;20105;-59
2022/01/20 08:12:05;;;;;;;14.73;2.85;;;;;;;4.25;71.40;102751.84;4993920;28;20044;-59
2022/01/20 08:14:31;;;;;;;20.10;3.15;;;;;;;4.25;71.10;102753.56;4993724;28;20031;-60
2022/01/20 08:16:56;;;;;;;11.10;2.55;;;;;;;4.26;70.93;102758.91;4993976;28;20023;-59
2022/01/20 08:19:22;;;;;;;15.77;3.05;;;;;;;4.28;70.92;102764.22;4993475;28;20030;-59
2022/01/20 08:21:48;;;;;;;15.95;2.72;;;;;;;4.31;71.58;102760.91;4993792;28;20058;-59
2022/01/20 08:24:13;;;;;;;14.05;2.85;;;;;;;4.34;71.42;102772.50;4993736;28;20022;-59
2022/01/20 08:26:39;;;;;;;13.57;3.00;;;;;;;4.39;71.68;102772.81;4993497;28;20030;-59
2022/01/20 08:29:05;;;;;;;26.95;3.78;;;;;;;4.41;71.50;102779.97;4993385;28;20023;-60
2022/01/20 08:31:31;;;;;;;18.08;3.05;;;;;;;4.47;71.28;102782.97;4993597;28;20035;-60
2022/01/20 08:33:57;;;;;;;16.45;2.83;;;;;;;4.52;71.94;102780.66;4993386;28;20019;-61
2022/01/20 08:36:22;;;;;;;14.25;2.58;;;;;;;4.52;70.98;102780.66;4994586;28;20398;-60
2022/01/20 08:38:48;;;;;;;15.85;2.72;;;;;;;4.51;71.29;102777.16;4997618;28;20048;-61
2022/01/20 08:41:13;;;;;;;12.25;2.78;;;;;;;4.53;71.06;102782.47;4997733;28;20018;-60
2022/01/20 08:43:39;;;;;;;16.33;3.30;;;;;;;4.52;71.63;102788.50;4997398;28;20022;-61
2022/01/20 08:46:07;;;;;;;16.50;3.28;;;;;;;4.49;71.89;102790.91;4997282;28;20026;-60
2022/01/20 08:48:35;;;;;;;14.82;2.92;;;;;;;4.50;72.03;102791.03;4997315;28;20054;-62
2022/01/20 08:51:01;;;;;;;13.35;2.67;;;;;;;4.49;72.22;102799.69;4997318;28;20380;-60
2022/01/20 08:53:27;;;;;;;14.02;2.80;;;;;;;4.48;72.71;102799.59;4997229;28;20026;-61
2022/01/20 08:55:53;;;;;;;13.45;2.75;;;;;;;4.51;72.98;102807.66;4997270;28;20038;-61
2022/01/20 08:58:19;;;;;;;15.07;2.90;;;;;;;4.49;73.12;102804.91;4996691;28;20057;-61
2022/01/20 09:00:44;;;;;;;12.10;2.72;;;;;;;4.52;73.69;102809.47;4997279;28;20121;-60
2022/01/20 09:03:10;;;;;;;18.48;3.03;;;;;;;4.53;74.52;102819.13;4997303;28;20519;-60
2022/01/20 09:05:38;;;;;;;12.82;2.75;;;;;;;4.55;74.74;102808.78;4996873;28;20022;-60
2022/01/20 09:08:04;;;;;;;15.32;2.80;;;;;;;4.56;75.43;102813.19;4997073;28;20022;-60
2022/01/20 09:10:37;;;;;;;12.57;2.50;;;;;;;4.62;76.32;102824.97;4997049;28;20027;-60
2022/01/20 09:15:47;;;;;;;13.25;2.63;;;;;;;4.69;76.00;102835.06;4996950;28;20085;-60
2022/01/20 09:18:13;;;;;;;13.55;2.80;;;;;;;4.72;74.80;102835.25;4996720;28;20443;-60
2022/01/20 09:20:39;;;;;;;15.23;2.97;;;;;;;4.81;75.03;102836.69;4996820;28;20026;-60
2022/01/20 09:23:05;;;;;;;11.20;2.60;;;;;;;4.82;74.94;102826.28;4996930;28;20034;-60
2022/01/20 09:25:30;;;;;;;13.07;2.88;;;;;;;4.85;74.45;102833.47;4996642;28;20030;-60
2022/01/20 09:27:56;;;;;;;13.70;2.63;;;;;;;4.89;74.00;102839.00;4996586;28;20022;-60
2022/01/20 09:30:23;;;;;;;13.60;2.70;;;;;;;4.94;73.41;102826.19;4996649;28;20026;-61
2022/01/20 09:33:00;;;;;;;14.73;3.10;;;;;;;4.95;73.89;102831.53;4996673;28;20030;-61
2022/01/20 09:35:29;;;;;;;11.60;2.92;;;;;;;4.99;73.72;102830.94;4996721;28;20467;-61
2022/01/20 09:37:54;;;;;;;21.92;3.22;;;;;;;5.00;72.82;102835.34;4996658;28;20034;-60
2022/01/20 09:40:20;;;;;;;12.90;2.72;;;;;;;5.34;73.75;102818.28;4996514;28;20030;-61
2022/01/20 09:42:45;;;;;;;7.45;2.20;;;;;;;6.08;73.27;102815.91;4996340;28;20027;-60
2022/01/20 09:45:13;;;;;;;12.52;2.38;;;;;;;6.89;70.76;102818.06;4996250;28;20464;-61
2022/01/20 09:47:38;;;;;;;16.60;2.58;;;;;;;7.70;67.07;102822.59;4978343;28;20057;-61
2022/01/20 09:50:04;;;;;;;10.98;2.58;;;;;;;8.49;66.17;102824.22;4996171;28;20101;-61
2022/01/20 09:52:30;;;;;;;12.48;2.90;;;;;;;9.00;63.49;102817.09;4996096;28;20432;-61
2022/01/20 09:54:55;;;;;;;12.40;2.35;;;;;;;9.11;62.03;102829.88;4996179;28;20030;-66
2022/01/20 09:57:21;;;;;;;10.93;2.47;;;;;;;9.00;63.53;102842.56;4995836;28;20046;-68
2022/01/20 09:59:48;;;;;;;10.68;2.45;;;;;;;8.88;62.97;102850.75;4996118;28;20073;-65
2022/01/20 10:02:18;;;;;;;14.27;2.55;;;;;;;8.68;62.74;102856.75;4995938;28;20031;-65
2022/01/20 10:04:44;;;;;;;15.38;2.50;;;;;;;8.39;61.99;102860.53;4995921;28;20100;-64
2022/01/20 10:07:13;;;;;;;10.23;2.70;;;;;;;8.07;62.02;102859.72;4995910;28;20369;-68
2022/01/20 10:09:45;;;;;;;9.48;2.80;;;;;;;8.01;63.60;102857.66;4996016;28;20101;-66
2022/01/20 10:12:14;;;;;;;7.38;2.13;;;;;;;8.26;65.11;102874.75;4995773;28;20023;-64
2022/01/20 10:14:52;;;;;;;11.77;2.45;;;;;;;8.52;64.09;102870.88;4995852;28;20120;-65
2022/01/20 10:17:22;;;;;;;10.05;2.50;;;;;;;8.69;64.22;102866.47;4995759;28;20023;-63
2022/01/20 10:19:52;;;;;;;13.63;3.20;;;;;;;8.74;60.63;102870.25;4995766;28;20073;-64
2022/01/20 10:22:23;;;;;;;12.90;2.90;;;;;;;8.94;62.14;102873.88;4995714;28;20491;-64
2022/01/20 10:25:06;;;;;;;11.65;2.80;;;;;;;8.99;62.48;102881.22;4995790;28;20054;-59
2022/01/20 10:27:43;;;;;;;13.48;3.00;;;;;;;9.20;58.87;102875.16;4995449;28;20357;-62
2022/01/20 10:30:11;;;;;;;14.20;2.83;;;;;;;9.33;57.85;102876.66;4995457;28;20049;-63
2022/01/20 10:32:51;;;;;;;11.38;2.55;;;;;;;9.43;59.33;102890.38;4995550;28;20026;-62
2022/01/20 10:35:24;;;;;;;11.18;2.55;;;;;;;9.80;59.79;102881.56;4995384;28;20085;-62
2022/01/20 10:37:59;;;;;;;15.32;2.80;;;;;;;9.86;57.24;102888.88;4995298;28;20031;-64
2022/01/20 10:40:25;;;;;;;14.40;3.50;;;;;;;9.91;56.04;102892.63;4995276;28;20042;-62
2022/01/20 10:42:50;;;;;;;14.32;3.20;;;;;;;9.96;56.93;102892.00;4995217;28;20022;-62
2022/01/20 10:45:27;;;;;;;12.50;2.85;;;;;;;9.94;57.60;102887.50;4995097;28;20037;-64
2022/01/20 10:47:55;;;;;;;13.50;2.60;;;;;;;9.68;54.74;102896.84;4995139;28;20022;-64
2022/01/20 10:50:27;;;;;;;13.43;2.50;;;;;;;9.40;55.01;102897.25;4995179;28;20034;-62
2022/01/20 10:52:53;;;;;;;10.48;2.75;;;;;;;9.09;54.81;102906.28;4995093;28;20106;-62
2022/01/20 10:55:27;;;;;;;11.48;2.78;;;;;;;8.68;56.12;102907.72;4995110;28;20033;-62
2022/01/20 10:57:54;;;;;;;12.38;2.92;;;;;;;8.38;56.59;102906.13;4994661;28;20503;-61
2022/01/20 11:00:22;;;;;;;13.65;3.13;;;;;;;8.17;58.12;102900.59;4993959;28;20072;-61
2022/01/20 11:02:53;;;;;;;12.07;2.75;;;;;;;7.93;58.83;102894.94;4994917;28;20033;-61
2022/01/20 11:05:20;;;;;;;14.45;2.83;;;;;;;7.87;58.88;102894.56;4994619;28;20027;-63
2022/01/20 11:07:46;;;;;;;13.68;2.60;;;;;;;7.76;58.30;102899.28;4994996;28;20030;-65
2022/01/20 11:10:13;;;;;;;12.00;2.40;;;;;;;7.79;58.52;102896.78;4995064;28;20022;-64
2022/01/20 11:12:39;;;;;;;12.48;2.70;;;;;;;7.65;58.36;102903.91;4994886;28;20061;-65
2022/01/20 11:15:09;;;;;;;14.65;2.90;;;;;;;7.67;60.16;102910.19;4994956;28;20105;-61
2022/01/20 11:17:35;;;;;;;17.77;2.97;;;;;;;7.68;59.89;102917.25;4994712;28;20423;-64
2022/01/20 11:20:06;;;;;;;11.93;2.95;;;;;;;7.61;59.35;102912.47;4994327;28;20110;-62
2022/01/20 11:33:11;;;;;;;12.52;2.83;;;;;;;7.89;60.14;102893.84;5090461;27;20404;-60
2022/01/20 11:35:48;;;;;;;15.30;2.75;;;;;;;8.10;56.93;102894.13;5070424;28;20033;-60
2022/01/20 11:38:16;;;;;;;16.20;2.80;;;;;;;8.13;58.38;102890.72;5070598;28;20123;-61
2022/01/20 11:41:16;;;;;;;13.43;2.67;;;;;;;8.08;57.84;102887.84;5070158;28;20031;-60
2022/01/20 11:43:52;;;;;;;14.52;2.80;;;;;;;8.09;58.81;102886.09;4988595;28;20129;-60
2022/01/20 11:46:22;;;;;;;12.65;2.80;;;;;;;8.07;57.93;102877.25;4988756;28;20035;-60
2022/01/20 11:48:50;;;;;;;9.43;2.70;;;;;;;8.00;57.31;102881.25;4988692;28;20034;-60
2022/01/20 11:51:19;;;;;;;16.13;3.00;;;;;;;7.97;57.66;102878.47;4988482;28;20038;-60
2022/01/20 11:54:04;;;;;;;15.82;2.72;;;;;;;7.82;57.43;102875.91;4988523;28;20117;-60
2022/01/20 11:56:39;;;;;;;10.27;2.42;;;;;;;7.77;56.65;102875.66;4988636;28;20031;-61
2022/01/20 11:59:06;;;;;;;14.95;2.70;;;;;;;7.70;57.42;102881.41;4988510;28;20110;-61
2022/01/20 12:01:52;;;;;;;16.52;3.00;;;;;;;7.66;58.85;102887.31;4988442;28;20042;-60
2022/01/20 12:04:41;;;;;;;10.50;2.67;;;;;;;7.72;58.52;102903.44;4982111;28;20037;-60
2022/01/20 12:07:11;;;;;;;9.88;3.00;;;;;;;7.80;58.41;102890.72;4988152;28;20125;-62
2022/01/20 12:09:39;;;;;;;17.13;3.50;;;;;;;7.98;58.78;102886.44;4988261;28;20392;-61
2022/01/20 12:12:18;;;;;;;12.43;3.05;;;;;;;8.17;56.42;102882.16;4988273;28;20216;-61
2022/01/20 12:14:44;;;;;;;16.08;2.97;;;;;;;8.33;58.22;102862.81;4988084;28;20066;-60
2022/01/20 12:17:11;;;;;;;15.50;3.00;;;;;;;8.41;57.14;102861.53;4988062;28;20422;-61
2022/01/20 12:19:38;;;;;;;12.93;3.15;;;;;;;8.74;57.31;102865.88;5009296;28;20102;-60
2022/01/20 12:22:05;;;;;;;11.30;2.80;;;;;;;8.85;53.94;102853.22;5049300;28;20026;-60
2022/01/20 12:24:35;;;;;;;10.02;2.45;;;;;;;8.62;54.60;102854.72;5049208;28;20028;-60
2022/01/20 12:27:02;;;;;;;12.23;2.40;;;;;;;8.41;53.45;102861.53;5047847;28;20419;-60
2022/01/20 12:29:37;;;;;;;13.90;2.47;;;;;;;8.35;54.64;102855.88;5048875;28;20017;-60
2022/01/20 12:32:12;;;;;;;9.50;2.60;;;;;;;8.18;53.89;102861.19;5058433;28;20055;-60
2022/01/20 12:34:37;;;;;;;7.75;2.10;;;;;;;7.94;53.59;102865.16;5055718;28;20032;-60
2022/01/20 12:37:03;;;;;;;10.88;2.65;;;;;;;7.70;55.80;102868.25;5055606;28;20025;-60
2022/01/20 12:39:32;;;;;;;11.10;2.60;;;;;;;7.52;55.86;102880.38;5055529;28;20021;-60
2022/01/20 12:42:00;;;;;;;11.25;2.40;;;;;;;7.51;56.18;102871.59;5055398;28;20032;-60
2022/01/20 12:45:55;;;;;;;10.95;2.20;;;;;;;7.53;56.45;102863.78;5055453;28;20048;-60
2022/01/20 12:47:32;;;;;;;13.32;2.55;;;;;;;7.44;55.13;102866.78;5054913;28;20072;-61
2022/01/20 12:50:00;;;;;;;11.77;2.70;;;;;;;7.41;55.53;102860.44;5055312;28;20100;-60